createdAt,value
2019-05-13T00:02:07.301Z,10.80
2019-05-13T00:04:34.229Z,11.35
2019-05-13T00:07:04.372Z,13.18
2019-05-13T00:09:30.384Z,12.00
2019-05-13T00:11:57.187Z,11.75
2019-05-13T00:14:24.086Z,12.58
2019-05-13T00:16:53.482Z,10.03
2019-05-13T00:19:19.651Z,12.00
2019-05-13T00:21:47.171Z,10.53
2019-05-13T00:24:14.059Z,11.03
2019-05-13T00:26:41.259Z,11.50
2019-05-13T00:29:08.047Z,11.12
2019-05-13T00:31:35.136Z,12.88
2019-05-13T00:34:03.666Z,10.85
2019-05-13T00:36:30.908Z,12.75
2019-05-13T00:38:57.983Z,10.32
2019-05-13T00:41:25.726Z,10.58
2019-05-13T00:43:53.259Z,9.73
2019-05-13T00:46:20.649Z,10.00
2019-05-13T00:48:47.639Z,9.15
2019-05-13T00:51:14.459Z,9.80
2019-05-13T00:53:44.056Z,9.05
2019-05-13T00:56:10.802Z,9.73
2019-05-13T00:58:38.246Z,9.18
2019-05-13T01:01:05.310Z,10.50
2019-05-13T01:03:33.842Z,9.15
2019-05-13T01:06:01.045Z,9.00
2019-05-13T01:08:27.995Z,8.78
2019-05-13T01:10:55.101Z,8.30
2019-05-13T01:13:23.768Z,8.68
2019-05-13T01:15:51.486Z,9.73
2019-05-13T01:18:18.778Z,10.23
2019-05-13T01:20:46.014Z,10.90
2019-05-13T01:23:14.116Z,10.78
2019-05-13T01:25:44.242Z,10.60
2019-05-13T01:28:13.462Z,10.10
2019-05-13T01:30:43.643Z,8.20
2019-05-13T01:33:11.483Z,8.35
2019-05-13T01:35:38.588Z,10.38
2019-05-13T01:38:07.027Z,9.78
2019-05-13T01:40:34.927Z,9.95
2019-05-13T01:43:03.537Z,9.03
2019-05-13T01:45:33.774Z,9.48
2019-05-13T01:48:01.440Z,8.20
2019-05-13T01:50:28.693Z,7.47
2019-05-13T01:52:56.198Z,8.05
2019-05-13T01:55:24.472Z,8.95
2019-05-13T01:57:53.323Z,7.33
2019-05-13T02:00:20.828Z,8.43
2019-05-13T02:02:48.230Z,7.30
2019-05-13T02:05:15.736Z,8.18
2019-05-13T02:07:56.520Z,6.87
2019-05-13T02:10:14.556Z,7.15
2019-05-13T02:12:44.656Z,5.05
2019-05-13T02:15:14.316Z,6.00
2019-05-13T02:17:44.585Z,6.22
2019-05-13T02:20:14.781Z,5.95
2019-05-13T02:22:43.791Z,4.75
2019-05-13T02:25:13.762Z,4.55
2019-05-13T02:27:43.659Z,3.90
2019-05-13T02:30:11.014Z,3.60
2019-05-13T02:32:38.166Z,3.25
2019-05-13T02:35:05.660Z,3.27
2019-05-13T02:37:34.250Z,3.12
2019-05-13T02:40:03.437Z,2.75
2019-05-13T02:42:32.784Z,2.52
2019-05-13T02:45:03.777Z,2.65
2019-05-13T02:47:32.850Z,3.12
2019-05-13T02:50:01.815Z,2.50
2019-05-13T02:52:27.817Z,2.95
2019-05-13T02:54:55.141Z,2.75
2019-05-13T02:57:23.384Z,3.55
2019-05-13T02:59:52.631Z,2.60
2019-05-13T03:02:22.481Z,3.35
2019-05-13T03:04:52.087Z,5.00
2019-05-13T03:07:18.229Z,5.35
2019-05-13T03:09:45.609Z,6.67
2019-05-13T03:12:13.309Z,7.47
2019-05-13T03:14:47.502Z,6.60
2019-05-13T03:17:28.913Z,6.33
2019-05-13T03:19:56.008Z,5.25
2019-05-13T03:22:23.123Z,4.65
2019-05-13T03:24:52.308Z,4.97
2019-05-13T03:27:20.522Z,5.90
2019-05-13T03:29:48.364Z,6.10
2019-05-13T03:32:17.609Z,8.13
2019-05-13T03:34:46.107Z,8.13
2019-05-13T03:37:15.656Z,9.98
2019-05-13T03:39:43.582Z,9.35
2019-05-13T03:42:12.389Z,8.48
2019-05-13T03:44:42.787Z,7.95
2019-05-13T03:47:12.750Z,6.30
2019-05-13T03:49:42.517Z,5.08
2019-05-13T03:52:13.465Z,4.22
2019-05-13T03:54:43.356Z,4.47
2019-05-13T03:57:12.593Z,3.37
2019-05-13T03:59:39.174Z,3.70
2019-05-13T04:02:06.399Z,3.15
2019-05-13T04:04:33.399Z,3.02
2019-05-13T04:07:02.684Z,3.87
2019-05-13T04:09:35.724Z,4.78
2019-05-13T04:12:03.217Z,6.10
2019-05-13T04:14:29.342Z,6.15
2019-05-13T04:16:57.407Z,8.95
2019-05-13T04:19:24.619Z,8.35
2019-05-13T04:21:52.835Z,7.50
2019-05-13T04:24:22.899Z,7.08
2019-05-13T04:26:49.425Z,6.65
2019-05-13T04:29:16.625Z,7.47
2019-05-13T04:31:43.540Z,7.50
2019-05-13T04:34:12.392Z,6.95
2019-05-13T04:36:42.782Z,6.15
2019-05-13T04:39:08.778Z,4.85
2019-05-13T04:41:37.170Z,4.47
2019-05-13T04:44:04.438Z,5.45
2019-05-13T04:46:32.725Z,7.37
2019-05-13T04:49:02.238Z,9.90
2019-05-13T04:51:32.845Z,11.33
2019-05-13T04:54:02.568Z,10.43
2019-05-13T04:56:28.600Z,10.63
2019-05-13T04:58:55.895Z,9.23
2019-05-13T05:01:59.319Z,8.28
2019-05-13T05:04:53.515Z,9.10
2019-05-13T05:07:42.963Z,10.20
2019-05-13T05:11:07.995Z,13.00
2019-05-13T05:13:53.097Z,9.30
2019-05-13T05:16:58.372Z,8.23
2019-05-13T05:20:03.200Z,9.05
2019-05-13T05:23:11.262Z,8.00
2019-05-13T05:26:01.167Z,8.13
2019-05-13T05:29:02.175Z,8.25
2019-05-13T05:32:01.960Z,11.10
2019-05-13T05:34:53.696Z,8.23
2019-05-13T05:37:47.838Z,9.08
2019-05-13T05:40:31.086Z,9.00
2019-05-13T05:42:48.116Z,9.58
2019-05-13T05:45:15.813Z,8.25
2019-05-13T05:47:44.046Z,8.05
2019-05-13T05:50:12.207Z,10.88
2019-05-13T05:52:42.155Z,11.85
2019-05-13T05:55:11.293Z,24.30
2019-05-13T05:57:41.948Z,59.25
2019-05-13T06:00:11.505Z,15.80
2019-05-13T06:02:42.736Z,10.23
2019-05-13T06:05:12.514Z,16.67
2019-05-13T06:07:42.166Z,15.03
2019-05-13T06:10:11.483Z,44.20
2019-05-13T06:12:42.170Z,39.27
2019-05-13T06:15:12.333Z,31.33
2019-05-13T06:17:41.309Z,21.20
2019-05-13T06:20:09.203Z,13.45
2019-05-13T06:22:36.489Z,29.98
2019-05-13T06:25:05.563Z,24.18
2019-05-13T06:27:32.379Z,52.62
2019-05-13T06:30:02.332Z,44.35
2019-05-13T06:32:31.399Z,60.00
2019-05-13T06:35:02.154Z,64.27
2019-05-13T06:37:28.255Z,23.02
2019-05-13T06:39:55.291Z,20.48
2019-05-13T06:42:22.538Z,18.25
2019-05-13T06:44:51.418Z,22.70
2019-05-13T06:47:18.606Z,28.20
2019-05-13T06:49:45.856Z,20.30
2019-05-13T06:52:12.893Z,16.57
2019-05-13T06:54:41.832Z,20.62
2019-05-13T06:57:13.148Z,26.95
2019-05-13T06:59:38.450Z,25.82
2019-05-13T07:02:05.669Z,26.77
2019-05-13T07:04:33.000Z,20.50
2019-05-13T07:07:09.825Z,21.12
2019-05-13T07:09:32.013Z,21.62
2019-05-13T07:11:58.513Z,25.52
2019-05-13T07:14:25.777Z,46.77
2019-05-13T07:16:52.863Z,68.25
2019-05-13T07:19:19.867Z,79.45
2019-05-13T07:21:46.967Z,46.65
2019-05-13T07:24:14.082Z,31.17
2019-05-13T07:26:41.909Z,32.48
2019-05-13T07:29:12.440Z,23.42
2019-05-13T07:31:38.195Z,20.23
2019-05-13T07:34:05.766Z,18.67
2019-05-13T07:36:33.034Z,15.83
2019-05-13T07:39:01.814Z,15.10
2019-05-13T07:41:36.526Z,17.52
2019-05-13T07:43:59.420Z,32.58
2019-05-13T07:46:26.577Z,27.25
2019-05-13T07:48:53.647Z,38.85
2019-05-13T07:51:22.217Z,45.90
2019-05-13T07:53:51.616Z,52.08
2019-05-13T07:56:18.323Z,31.90
2019-05-13T07:58:45.783Z,19.12
2019-05-13T08:01:12.895Z,19.87
2019-05-13T08:03:42.190Z,17.40
2019-05-13T08:06:10.864Z,19.87
2019-05-13T08:08:41.489Z,43.08
2019-05-13T08:11:07.828Z,42.60
2019-05-13T08:13:35.155Z,28.98
2019-05-13T08:16:02.338Z,17.92
2019-05-13T08:18:31.874Z,15.72
2019-05-13T08:20:58.729Z,29.40
2019-05-13T08:23:26.904Z,54.53
2019-05-13T08:25:54.195Z,18.73
2019-05-13T08:28:22.605Z,24.45
2019-05-13T08:30:51.824Z,24.90
2019-05-13T08:33:19.395Z,32.17
2019-05-13T08:35:46.963Z,46.23
2019-05-13T08:38:15.443Z,52.40
2019-05-13T08:40:42.762Z,62.50
2019-05-13T08:43:12.092Z,92.50
2019-05-13T08:45:42.043Z,40.08
2019-05-13T08:48:12.449Z,27.32
2019-05-13T08:50:41.634Z,21.50
2019-05-13T08:53:08.115Z,83.20
2019-05-13T08:55:35.151Z,61.02
2019-05-13T08:58:02.326Z,12.35
2019-05-13T09:00:47.393Z,61.85
2019-05-13T09:03:16.197Z,92.67
2019-05-13T09:05:43.697Z,26.45
2019-05-13T09:08:11.789Z,18.15
2019-05-13T09:10:41.213Z,15.98
2019-05-13T09:13:07.911Z,19.67
2019-05-13T09:15:35.134Z,26.90
2019-05-13T09:18:02.557Z,44.93
2019-05-13T09:20:32.190Z,28.85
2019-05-13T09:22:59.135Z,21.68
2019-05-13T09:25:26.250Z,36.48
2019-05-13T09:27:53.306Z,33.02
2019-05-13T09:30:22.296Z,54.03
2019-05-13T09:32:51.410Z,30.05
2019-05-13T09:35:18.446Z,26.33
2019-05-13T09:37:45.602Z,24.10
2019-05-13T09:40:12.899Z,19.90
2019-05-13T09:42:49.164Z,21.12
2019-05-13T09:45:12.093Z,27.87
2019-05-13T09:47:38.632Z,23.95
2019-05-13T09:50:06.535Z,26.23
2019-05-13T09:52:33.670Z,17.73
2019-05-13T09:55:03.037Z,10.08
2019-05-13T09:57:32.195Z,11.73
2019-05-13T10:00:01.787Z,22.32
2019-05-13T10:02:28.802Z,11.78
2019-05-13T10:04:56.315Z,14.80
2019-05-13T10:07:23.359Z,19.23
2019-05-13T10:09:52.055Z,20.00
2019-05-13T10:12:23.810Z,29.02
2019-05-13T10:14:48.988Z,23.22
2019-05-13T10:17:16.870Z,12.98
2019-05-13T10:19:43.994Z,14.23
2019-05-13T10:22:12.186Z,20.35
2019-05-13T10:24:42.229Z,20.92
2019-05-13T10:27:12.234Z,22.52
2019-05-13T10:29:42.179Z,13.83
2019-05-13T10:32:08.588Z,23.47
2019-05-13T10:34:35.919Z,36.93
2019-05-13T10:37:03.130Z,27.15
2019-05-13T10:39:30.794Z,13.08
2019-05-13T10:41:58.003Z,17.10
2019-05-13T10:44:25.267Z,21.23
2019-05-13T10:46:52.437Z,14.90
2019-05-13T10:49:22.067Z,16.23
2019-05-13T10:51:49.217Z,12.23
2019-05-13T10:54:16.222Z,16.42
2019-05-13T10:56:44.856Z,9.58
2019-05-13T10:59:12.787Z,12.25
2019-05-13T11:01:42.690Z,13.38
2019-05-13T11:04:13.297Z,16.05
2019-05-13T11:06:37.999Z,12.65
2019-05-13T11:09:08.130Z,10.68
2019-05-13T11:11:35.345Z,17.12
2019-05-13T11:14:10.817Z,17.37
2019-05-13T11:16:32.443Z,18.20
2019-05-13T11:19:02.524Z,13.83
2019-05-13T11:21:28.944Z,15.72
2019-05-13T11:23:56.039Z,10.78
2019-05-13T11:26:23.580Z,15.70
2019-05-13T11:28:52.107Z,13.68
2019-05-13T11:31:22.452Z,16.70
2019-05-13T11:33:51.794Z,14.47
2019-05-13T11:36:19.222Z,17.27
2019-05-13T11:38:46.987Z,18.62
2019-05-13T11:41:14.148Z,15.38
2019-05-13T11:43:41.633Z,18.15
2019-05-13T11:46:08.839Z,17.45
2019-05-13T11:48:36.144Z,14.60
2019-05-13T11:51:04.411Z,17.17
2019-05-13T11:53:34.544Z,12.18
2019-05-13T11:56:03.584Z,12.25
2019-05-13T11:58:30.109Z,11.80
2019-05-13T12:01:02.665Z,14.95
2019-05-13T12:03:32.152Z,12.88
2019-05-13T12:05:58.639Z,10.53
2019-05-13T12:08:26.088Z,12.82
2019-05-13T12:10:54.644Z,9.18
2019-05-13T12:13:23.213Z,12.47
2019-05-13T12:15:53.887Z,15.83
2019-05-13T12:18:23.402Z,13.40
2019-05-13T12:20:49.329Z,12.70
2019-05-13T12:23:16.740Z,14.18
2019-05-13T12:25:44.149Z,13.80
2019-05-13T12:28:11.590Z,15.85
2019-05-13T12:30:41.805Z,16.57
2019-05-13T12:33:08.772Z,12.13
2019-05-13T12:35:35.948Z,15.58
2019-05-13T12:38:03.375Z,15.90
2019-05-13T12:40:33.743Z,9.98
2019-05-13T12:43:01.956Z,10.65
2019-05-13T12:45:29.664Z,17.32
2019-05-13T12:47:56.792Z,11.10
2019-05-13T12:50:24.887Z,12.82
2019-05-13T12:52:52.239Z,14.85
2019-05-13T12:55:21.748Z,12.28
2019-05-13T12:57:48.838Z,14.90
2019-05-13T13:00:17.384Z,13.38
2019-05-13T13:02:50.369Z,13.00
2019-05-13T13:05:19.924Z,14.68
2019-05-13T13:07:43.225Z,14.93
2019-05-13T13:10:14.725Z,12.63
2019-05-13T13:12:42.224Z,13.53
2019-05-13T13:15:33.072Z,12.82
2019-05-13T13:17:38.497Z,11.12
2019-05-13T13:20:09.591Z,12.75
2019-05-13T13:22:36.016Z,15.38
2019-05-13T13:25:06.046Z,20.30
2019-05-13T13:28:00.030Z,15.28
2019-05-13T13:30:08.463Z,14.00
2019-05-13T13:32:34.737Z,13.28
2019-05-13T13:35:03.708Z,13.10
2019-05-13T13:37:34.993Z,13.58
2019-05-13T13:40:03.432Z,18.20
2019-05-13T13:42:33.031Z,13.43
2019-05-13T13:44:59.388Z,19.23
2019-05-13T13:47:26.907Z,20.40
2019-05-13T13:49:54.263Z,17.35
2019-05-13T13:52:22.817Z,24.92
2019-05-13T13:54:58.950Z,17.02
2019-05-13T13:57:19.115Z,14.40
2019-05-13T14:00:16.238Z,18.92
2019-05-13T14:02:15.859Z,37.13
2019-05-13T14:04:43.350Z,34.70
2019-05-13T14:07:27.750Z,24.00
2019-05-13T14:09:40.221Z,28.25
2019-05-13T14:12:07.637Z,31.97
2019-05-13T14:14:34.706Z,22.45
2019-05-13T14:17:18.285Z,19.07
2019-05-13T14:19:45.391Z,23.98
2019-05-13T14:22:12.823Z,26.02
2019-05-13T14:24:42.316Z,35.08
2019-05-13T14:27:08.871Z,26.77
2019-05-13T14:29:40.658Z,24.57
2019-05-13T14:32:05.079Z,23.60
2019-05-13T14:34:32.310Z,42.10
2019-05-13T14:37:01.144Z,60.58
2019-05-13T14:39:31.344Z,73.90
2019-05-13T14:41:58.470Z,80.80
2019-05-13T14:44:25.525Z,83.30
2019-05-13T14:46:52.575Z,54.60
2019-05-13T14:49:22.269Z,51.13
2019-05-13T14:51:48.706Z,85.12
2019-05-13T14:54:16.035Z,62.08
2019-05-13T14:56:43.250Z,32.33
2019-05-13T14:59:11.654Z,58.00
2019-05-13T15:01:41.187Z,61.77
2019-05-13T15:04:08.393Z,90.83
2019-05-13T15:06:35.407Z,163.97
2019-05-13T15:09:05.158Z,182.37
2019-05-13T15:11:32.528Z,162.05
2019-05-13T15:14:02.471Z,69.35
2019-05-13T15:16:31.217Z,40.15
2019-05-13T15:18:58.379Z,68.92
2019-05-13T15:21:25.733Z,95.30
2019-05-13T15:23:52.731Z,64.80
2019-05-13T15:26:22.043Z,22.52
2019-05-13T15:28:48.838Z,21.05
2019-05-13T15:31:18.122Z,28.02
2019-05-13T15:33:45.136Z,35.48
2019-05-13T15:36:12.189Z,47.88
2019-05-13T15:38:41.242Z,47.88
2019-05-13T15:41:08.029Z,262.40
2019-05-13T15:43:35.050Z,539.83
2019-05-13T15:46:02.992Z,763.72
2019-05-13T15:48:31.523Z,607.85
2019-05-13T15:51:01.507Z,606.95
2019-05-13T15:53:28.174Z,682.15
2019-05-13T15:55:55.101Z,155.97
2019-05-13T15:58:38.053Z,116.82
2019-05-13T16:00:52.321Z,164.15
2019-05-13T16:03:19.698Z,135.93
2019-05-13T16:05:46.881Z,99.55
2019-05-13T16:08:13.963Z,101.95
2019-05-13T16:10:41.923Z,96.75
2019-05-13T16:13:11.663Z,86.08
2019-05-13T16:15:38.298Z,64.30
2019-05-13T16:18:05.471Z,139.10
2019-05-13T16:20:32.999Z,191.80
2019-05-13T16:23:02.434Z,136.35
2019-05-13T16:25:29.224Z,86.05
2019-05-13T16:27:56.363Z,87.33
2019-05-13T16:30:23.521Z,67.92
2019-05-13T16:32:52.152Z,57.62
2019-05-13T16:35:21.518Z,42.60
2019-05-13T16:37:48.597Z,55.35
2019-05-13T16:40:15.839Z,33.70
2019-05-13T16:42:43.501Z,82.92
2019-05-13T16:45:12.477Z,96.37
2019-05-13T16:47:55.804Z,132.72
2019-05-13T16:50:11.466Z,74.80
2019-05-13T16:52:38.787Z,76.12
2019-05-13T16:55:06.592Z,83.60
2019-05-13T16:57:33.601Z,86.32
2019-05-13T17:00:02.491Z,59.48
2019-05-13T17:02:29.626Z,72.27
2019-05-13T17:04:56.527Z,56.13
2019-05-13T17:07:23.719Z,18.95
2019-05-13T17:09:52.208Z,27.82
2019-05-13T17:12:21.156Z,159.93
2019-05-13T17:14:48.387Z,191.75
2019-05-13T17:17:15.553Z,68.37
2019-05-13T17:19:42.452Z,48.80
2019-05-13T17:22:09.713Z,74.97
2019-05-13T17:24:36.611Z,60.08
2019-05-13T17:27:03.615Z,29.67
2019-05-13T17:29:31.688Z,51.75
2019-05-13T17:31:59.056Z,27.82
2019-05-13T17:34:26.229Z,75.83
2019-05-13T17:36:53.367Z,102.75
2019-05-13T17:39:21.345Z,89.50
2019-05-13T17:41:48.313Z,55.52
2019-05-13T17:44:15.307Z,142.32
2019-05-13T17:46:42.160Z,66.37
2019-05-13T17:49:11.575Z,71.35
2019-05-13T17:51:38.151Z,89.97
2019-05-13T17:54:05.446Z,68.45
2019-05-13T17:56:32.447Z,75.72
2019-05-13T17:58:59.525Z,47.45
2019-05-13T18:01:26.579Z,109.85
2019-05-13T18:03:53.568Z,82.97
2019-05-13T18:06:21.048Z,86.45
2019-05-13T18:08:48.336Z,61.15
2019-05-13T18:11:15.705Z,43.95
2019-05-13T18:13:43.710Z,34.13
2019-05-13T18:16:12.553Z,22.42
2019-05-13T18:18:46.756Z,19.55
2019-05-13T18:21:08.915Z,30.20
2019-05-13T18:23:35.866Z,16.70
2019-05-13T18:26:03.492Z,15.65
2019-05-13T18:28:31.594Z,19.05
2019-05-13T18:30:58.922Z,24.27
2019-05-13T18:33:26.127Z,32.35
2019-05-13T18:35:53.148Z,26.97
2019-05-13T18:38:21.111Z,28.57
2019-05-13T18:40:48.341Z,28.17
2019-05-13T18:43:15.772Z,24.32
2019-05-13T18:45:42.677Z,21.12
2019-05-13T18:48:12.082Z,25.70
2019-05-13T18:50:38.594Z,27.17
2019-05-13T18:53:05.678Z,26.33
2019-05-13T18:55:32.612Z,31.55
2019-05-13T18:58:01.056Z,30.85
2019-05-13T19:00:28.387Z,31.75
2019-05-13T19:02:55.603Z,33.63
2019-05-13T19:05:22.610Z,27.07
2019-05-13T19:07:51.262Z,26.15
2019-05-13T19:10:18.728Z,26.93
2019-05-13T19:12:46.083Z,23.85
2019-05-13T19:15:15.299Z,22.10
2019-05-13T19:17:42.854Z,24.23
2019-05-13T19:20:11.626Z,26.07
2019-05-13T19:22:41.285Z,21.35
2019-05-13T19:25:08.856Z,28.23
2019-05-13T19:27:35.817Z,29.45
2019-05-13T19:30:05.039Z,26.93
2019-05-13T19:32:32.481Z,19.02
2019-05-13T19:35:02.404Z,22.82
2019-05-13T19:37:28.751Z,26.10
2019-05-13T19:39:55.965Z,26.50
2019-05-13T19:42:24.012Z,36.98
2019-05-13T19:44:51.256Z,38.55
2019-05-13T19:47:19.161Z,30.02
2019-05-13T19:49:46.841Z,25.30
2019-05-13T19:52:21.374Z,23.57
2019-05-13T19:54:48.667Z,17.73
2019-05-13T19:57:21.115Z,17.67
2019-05-13T19:59:47.556Z,12.07
2019-05-13T20:02:14.668Z,19.20
2019-05-13T20:04:42.000Z,21.50
2019-05-13T20:07:11.527Z,22.75
2019-05-13T20:09:38.760Z,24.80
2019-05-13T20:12:05.971Z,23.77
2019-05-13T20:14:33.093Z,23.67
2019-05-13T20:17:01.586Z,19.82
2019-05-13T20:19:42.735Z,20.17
2019-05-13T20:21:58.065Z,16.90
2019-05-13T20:24:25.248Z,17.40
2019-05-13T20:26:53.995Z,26.60
2019-05-13T20:29:21.582Z,29.50
2019-05-13T20:31:48.577Z,23.32
2019-05-13T20:34:15.876Z,25.65
2019-05-13T20:36:43.299Z,23.90
2019-05-13T20:39:11.589Z,23.95
2019-05-13T20:41:41.255Z,23.27
2019-05-13T20:44:08.551Z,20.52
2019-05-13T20:46:35.816Z,20.37
2019-05-13T20:49:03.298Z,21.95
2019-05-13T20:51:31.305Z,22.10
2019-05-13T20:53:58.512Z,18.90
2019-05-13T20:56:25.677Z,19.00
2019-05-13T20:58:52.940Z,20.55
2019-05-13T21:01:20.189Z,20.77
2019-05-13T21:03:47.688Z,19.95
2019-05-13T21:06:15.335Z,21.73
2019-05-13T21:08:42.227Z,18.62
2019-05-13T21:11:11.366Z,16.20
2019-05-13T21:13:38.211Z,17.55
2019-05-13T21:16:05.214Z,17.87
2019-05-13T21:18:32.612Z,18.95
2019-05-13T21:21:01.017Z,19.55
2019-05-13T21:23:28.003Z,19.23
2019-05-13T21:25:55.398Z,18.55
2019-05-13T21:28:22.296Z,18.05
2019-05-13T21:30:51.281Z,18.67
2019-05-13T21:33:18.491Z,17.75
2019-05-13T21:35:46.371Z,17.80
2019-05-13T21:38:13.481Z,12.63
2019-05-13T21:40:41.529Z,15.10
2019-05-13T21:43:08.796Z,11.97
2019-05-13T21:45:35.804Z,15.00
2019-05-13T21:48:03.239Z,11.68
2019-05-13T21:50:36.360Z,10.43
2019-05-13T21:52:59.288Z,11.43
2019-05-13T21:55:26.782Z,9.08
2019-05-13T21:57:53.718Z,7.45
2019-05-13T22:00:25.724Z,7.72
2019-05-13T22:02:52.653Z,9.05
2019-05-13T22:05:22.057Z,7.83
2019-05-13T22:07:48.809Z,10.23
2019-05-13T22:10:16.311Z,7.47
2019-05-13T22:12:43.854Z,9.30
2019-05-13T22:15:11.393Z,9.23
2019-05-13T22:17:38.570Z,8.08
2019-05-13T22:20:06.599Z,12.20
2019-05-13T22:22:33.462Z,8.18
2019-05-13T22:25:01.985Z,9.50
2019-05-13T22:27:29.193Z,7.37
2019-05-13T22:29:57.550Z,6.87
2019-05-13T22:32:25.059Z,6.47
2019-05-13T22:34:52.851Z,7.00
2019-05-13T22:37:20.212Z,8.55
2019-05-13T22:39:47.207Z,11.60
2019-05-13T22:42:14.303Z,7.92
2019-05-13T22:44:41.964Z,8.38
2019-05-13T22:47:13.057Z,7.37
2019-05-13T22:49:37.635Z,7.83
2019-05-13T22:52:04.962Z,9.40
2019-05-13T22:54:31.979Z,8.35
2019-05-13T22:56:59.395Z,9.05
2019-05-13T22:59:26.755Z,9.15
2019-05-13T23:01:59.792Z,6.50
2019-05-13T23:04:26.633Z,7.00
2019-05-13T23:06:53.616Z,8.58
2019-05-13T23:09:21.537Z,6.55
2019-05-13T23:11:50.997Z,6.50
2019-05-13T23:14:17.915Z,5.75
2019-05-13T23:16:45.038Z,6.60
2019-05-13T23:19:12.406Z,8.10
2019-05-13T23:21:41.634Z,7.28
2019-05-13T23:24:08.633Z,6.53
2019-05-13T23:26:35.798Z,7.53
2019-05-13T23:29:03.112Z,11.78
2019-05-13T23:31:29.902Z,14.00
2019-05-13T23:33:56.743Z,13.70
2019-05-13T23:36:31.599Z,10.72
2019-05-13T23:39:00.940Z,8.83
2019-05-13T23:41:28.558Z,7.20
2019-05-13T23:43:55.388Z,9.28
2019-05-13T23:46:22.485Z,7.00
2019-05-13T23:48:51.842Z,7.15
2019-05-13T23:51:18.666Z,8.20
2019-05-13T23:53:45.603Z,6.67
2019-05-13T23:56:12.796Z,6.50
2019-05-13T23:58:41.366Z,5.10
